Time;durP1;ratioP1;P1;durP2;ratioP2;P2;SDS_P1;SDS_P2;PMS_P1;PMS_P2;Temp;Humidity;BMP_temperature;BMP_pressure;BME280_temperature;BME280_humidity;BME280_pressure;Samples;Min_cycle;Max_cycle;Signal;HPM_P1;HPM_P2
2021/11/19 00:01:15;;;;;;;326.58;162.90;;;;;;;1.84;75.85;95046.33;1716208;82;21041;-67
2021/11/19 00:03:42;;;;;;;331.23;165.52;;;;;;;1.73;76.10;95040.09;1690842;82;21646;-69
2021/11/19 00:06:09;;;;;;;318.48;160.43;;;;;;;1.70;76.10;95034.68;1674115;83;22014;-68
2021/11/19 00:08:36;;;;;;;324.92;162.03;;;;;;;1.62;76.32;95031.17;1706750;83;20989;-69
2021/11/19 00:11:09;;;;;;;290.00;153.87;;;;;;;1.63;76.28;95034.08;1702313;83;21012;-67
2021/11/19 00:13:38;;;;;;;318.77;158.10;;;;;;;1.66;76.34;95029.23;1700339;83;21007;-67
2021/11/19 00:16:05;;;;;;;299.58;153.30;;;;;;;1.64;76.37;95033.48;1696846;83;21003;-68
2021/11/19 00:18:31;;;;;;;302.85;153.85;;;;;;;1.67;76.33;95033.50;1679120;83;21120;-69
2021/11/19 00:20:58;;;;;;;295.73;145.62;;;;;;;1.64;76.26;95035.62;1668480;83;21077;-68
2021/11/19 00:23:24;;;;;;;277.93;138.77;;;;;;;1.65;76.19;95033.11;1691902;83;21042;-68
2021/11/19 00:25:51;;;;;;;306.13;153.45;;;;;;;1.66;76.66;95034.66;1696215;83;21027;-68
2021/11/19 00:28:17;;;;;;;326.18;153.10;;;;;;;1.65;76.26;95038.53;1691736;83;21042;-68
2021/11/19 00:30:45;;;;;;;280.85;137.72;;;;;;;1.61;76.45;95044.53;1674687;83;21965;-67
2021/11/19 00:33:11;;;;;;;264.82;133.20;;;;;;;1.61;76.19;95040.46;1701019;82;21030;-68
2021/11/19 00:35:40;;;;;;;257.75;126.40;;;;;;;1.63;76.58;95038.14;1726593;82;20995;-68
2021/11/19 00:38:07;;;;;;;267.02;131.55;;;;;;;1.69;76.22;95038.55;1726055;82;21023;-67
2021/11/19 00:40:48;;;;;;;268.35;136.95;;;;;;;1.66;76.00;95044.74;1717932;82;21054;-68
2021/11/19 00:43:14;;;;;;;301.02;142.32;;;;;;;1.67;76.04;95038.92;1724662;82;21141;-69
2021/11/19 00:45:42;;;;;;;266.33;128.38;;;;;;;1.65;75.77;95043.95;1721986;82;21142;-68
2021/11/19 00:48:09;;;;;;;268.27;135.52;;;;;;;1.60;75.59;95028.06;1695912;82;21030;-69
2021/11/19 00:50:45;;;;;;;281.43;141.62;;;;;;;1.56;75.33;95036.77;1696437;82;21490;-69
2021/11/19 00:53:12;;;;;;;296.23;146.22;;;;;;;1.40;75.42;95032.83;1718973;82;21030;-67
2021/11/19 00:55:40;;;;;;;260.57;135.55;;;;;;;1.39;76.01;95033.42;1733060;82;21144;-68
2021/11/19 00:58:06;;;;;;;266.20;134.70;;;;;;;1.43;76.00;95043.69;1727688;82;20972;-67
2021/11/19 01:00:41;;;;;;;265.35;130.52;;;;;;;1.51;75.97;95038.48;1716833;82;21487;-68
2021/11/19 01:03:09;;;;;;;210.32;112.17;;;;;;;1.59;75.87;95034.65;1695378;82;21969;-66
2021/11/19 01:05:36;;;;;;;220.45;111.40;;;;;;;1.69;75.78;95024.40;1660432;86;21454;-69
2021/11/19 01:08:05;;;;;;;195.18;102.72;;;;;;;1.73;75.84;95015.12;1686839;84;21204;-68
2021/11/19 01:10:35;;;;;;;189.72;100.35;;;;;;;1.74;75.17;95021.33;1659534;86;21051;-68
2021/11/19 01:13:01;;;;;;;192.40;103.90;;;;;;;1.72;75.14;95012.02;1688488;84;21102;-68
2021/11/19 01:15:33;;;;;;;183.78;96.53;;;;;;;1.66;75.11;95012.20;1657897;86;21480;-67
2021/11/19 01:18:05;;;;;;;162.43;86.70;;;;;;;1.62;74.84;95010.05;1659918;86;20987;-68
2021/11/19 01:20:45;;;;;;;162.70;79.92;;;;;;;1.60;74.98;95002.31;1691499;84;21160;-68
2021/11/19 01:23:13;;;;;;;265.15;130.90;;;;;;;1.60;75.30;94993.39;1654524;86;21071;-68
2021/11/19 01:25:49;;;;;;;245.70;125.00;;;;;;;1.51;74.85;95004.59;1684631;84;21031;-69
2021/11/19 01:28:17;;;;;;;213.80;112.42;;;;;;;1.43;74.93;94996.27;1690875;84;21454;-68
2021/11/19 01:30:54;;;;;;;236.22;119.10;;;;;;;1.42;75.07;94989.29;1691952;84;21034;-67
2021/11/19 01:33:20;;;;;;;242.13;118.20;;;;;;;1.40;74.57;94988.90;1707047;82;21058;-69
2021/11/19 01:35:52;;;;;;;269.87;130.65;;;;;;;1.27;74.50;94994.45;1729013;82;21050;-68
2021/11/19 01:38:20;;;;;;;230.95;118.82;;;;;;;1.18;74.90;94990.55;1709092;82;20966;-69
2021/11/19 01:40:54;;;;;;;206.43;100.85;;;;;;;1.15;75.07;94988.02;1727729;82;21014;-67
2021/11/19 01:43:25;;;;;;;213.70;104.45;;;;;;;1.20;75.19;94987.67;1717679;82;21000;-67
2021/11/19 01:45:58;;;;;;;198.87;102.32;;;;;;;1.28;75.22;94991.95;1697164;82;20991;-69
2021/11/19 01:48:35;;;;;;;209.05;99.22;;;;;;;1.37;75.11;94984.81;1727728;82;21046;-69
2021/11/19 01:51:16;;;;;;;142.77;79.10;;;;;;;1.44;75.04;94995.66;1721604;82;21021;-68
2021/11/19 01:53:55;;;;;;;146.57;80.83;;;;;;;1.55;75.35;94985.64;1730757;82;21019;-68
2021/11/19 01:56:33;;;;;;;147.78;80.85;;;;;;;1.60;74.91;94975.77;1706566;82;21086;-67
2021/11/19 01:59:12;;;;;;;124.07;66.17;;;;;;;1.61;74.88;94970.54;1716666;82;21432;-68
2021/11/19 02:01:47;;;;;;;122.90;65.22;;;;;;;1.61;74.83;94961.05;1722641;82;20995;-68
2021/11/19 02:04:21;;;;;;;111.75;60.33;;;;;;;1.59;74.68;94968.80;1717086;82;21093;-68
2021/11/19 02:07:00;;;;;;;144.77;77.12;;;;;;;1.47;74.46;94961.80;1717759;82;21078;-68
2021/11/19 02:10:10;;;;;;;139.77;72.90;;;;;;;1.40;74.80;94955.02;1721661;82;21025;-68
2021/11/19 02:12:50;;;;;;;101.30;56.65;;;;;;;1.39;75.12;94954.83;1712960;82;21180;-66
2021/11/19 02:15:25;;;;;;;92.53;51.68;;;;;;;1.42;75.16;94955.98;1715543;82;21193;-68
2021/11/19 02:17:56;;;;;;;69.32;39.33;;;;;;;1.49;75.23;94962.19;1721648;82;21557;-68
2021/11/19 02:20:30;;;;;;;61.63;35.10;;;;;;;1.50;74.89;94950.19;1722316;82;21101;-69
2021/11/19 02:23:02;;;;;;;91.53;48.52;;;;;;;1.49;75.07;94949.99;1690674;83;21118;-68
2021/11/19 02:25:43;;;;;;;77.78;44.93;;;;;;;1.53;75.44;94943.23;1721369;82;21975;-69
2021/11/19 02:28:17;;;;;;;67.70;40.35;;;;;;;1.54;75.16;94931.98;1720427;82;21006;-69
2021/11/19 02:30:54;;;;;;;;;;;;;;;1.54;75.57;94941.48;1728348;82;21140;-68
2021/11/19 02:33:23;;;;;;;94.72;49.75;;;;;;;1.57;75.28;94932.59;1713041;82;20263;-67
2021/11/19 02:36:07;;;;;;;98.67;55.85;;;;;;;1.60;75.15;94935.89;1707559;83;20973;-68
2021/11/19 02:39:01;;;;;;;215.40;102.90;;;;;;;1.65;75.16;94935.50;1708429;83;21144;-68
2021/11/19 02:41:32;;;;;;;191.07;97.53;;;;;;;1.65;74.78;94923.30;1695752;84;21013;-68
2021/11/19 02:44:04;;;;;;;165.57;83.87;;;;;;;1.61;74.43;94917.11;1705463;84;21025;-68
2021/11/19 02:46:39;;;;;;;119.47;62.00;;;;;;;1.54;74.57;94917.67;1674612;83;21531;-68
2021/11/19 02:49:07;;;;;;;84.97;43.40;;;;;;;1.55;74.72;94913.23;1672183;83;21033;-68
2021/11/19 02:51:35;;;;;;;63.58;37.88;;;;;;;1.62;75.25;94913.23;1674315;83;23440;-66
2021/11/19 02:54:06;;;;;;;116.90;61.63;;;;;;;1.73;75.24;94902.39;1678219;83;21017;-66
2021/11/19 02:56:34;;;;;;;87.88;48.98;;;;;;;1.75;75.18;94901.61;1674936;83;21557;-68
2021/11/19 02:59:02;;;;;;;154.27;78.42;;;;;;;1.70;74.61;94905.88;1682977;83;21083;-67
2021/11/19 03:01:34;;;;;;;111.90;56.68;;;;;;;1.57;74.79;94902.78;1678932;83;20959;-67
2021/11/19 03:04:28;;;;;;;137.43;69.32;;;;;;;1.61;75.33;94900.84;1707196;82;21185;-68
2021/11/19 03:06:57;;;;;;;120.10;64.82;;;;;;;1.72;75.20;94890.76;1714496;81;20963;-68
2021/11/19 03:09:29;;;;;;;102.22;53.80;;;;;;;1.80;75.11;94891.73;1715023;82;20990;-69
2021/11/19 03:11:56;;;;;;;102.17;55.13;;;;;;;1.91;74.81;94894.44;1722961;82;21471;-70
2021/11/19 03:14:24;;;;;;;86.90;45.28;;;;;;;2.00;74.64;94892.13;1720095;82;20991;-68
2021/11/19 03:16:52;;;;;;;72.37;38.90;;;;;;;2.09;74.70;94893.27;1724238;83;21049;-67
2021/11/19 03:19:19;;;;;;;68.25;40.95;;;;;;;2.22;74.44;94896.35;1718966;82;21028;-69
2021/11/19 03:21:46;;;;;;;72.75;41.33;;;;;;;2.31;74.54;94907.59;1731076;82;21015;-68
2021/11/19 03:24:15;;;;;;;86.17;47.62;;;;;;;2.42;74.33;94907.77;1720006;82;21072;-68
2021/11/19 03:26:44;;;;;;;91.30;48.85;;;;;;;2.50;74.12;94894.35;1716965;82;21739;-69
2021/11/19 03:29:11;;;;;;;72.85;42.27;;;;;;;2.58;73.76;94889.68;1730880;82;21424;-68
2021/11/19 03:31:40;;;;;;;68.65;39.45;;;;;;;2.52;73.60;94902.12;1718591;82;21045;-69
2021/11/19 03:34:09;;;;;;;147.95;76.22;;;;;;;2.45;73.59;94892.62;1699768;83;21327;-69
2021/11/19 03:36:38;;;;;;;140.77;75.50;;;;;;;2.38;74.04;94894.00;1712336;82;21089;-69
2021/11/19 03:39:06;;;;;;;144.57;78.22;;;;;;;2.45;73.94;94896.69;1741564;81;21010;-70
2021/11/19 03:41:36;;;;;;;141.90;74.50;;;;;;;2.43;73.90;94897.66;1733903;82;21074;-69
2021/11/19 03:44:17;;;;;;;103.05;55.15;;;;;;;2.43;73.95;94891.67;1723621;82;21057;-69
2021/11/19 03:46:52;;;;;;;84.55;46.25;;;;;;;2.48;74.10;94894.57;1716312;82;21215;-68
2021/11/19 03:49:19;;;;;;;83.12;46.50;;;;;;;2.52;74.23;94893.97;1719356;82;20989;-67
2021/11/19 03:51:55;;;;;;;75.28;44.60;;;;;;;2.60;74.29;94884.63;1705297;82;20970;-69
2021/11/19 03:54:23;;;;;;;77.85;42.23;;;;;;;2.72;73.85;94884.21;1705247;82;21163;-69
2021/11/19 03:56:50;;;;;;;80.30;41.33;;;;;;;2.82;73.86;94886.88;1725848;82;21073;-68
2021/11/19 03:59:18;;;;;;;89.20;42.38;;;;;;;2.91;73.41;94876.95;1724391;82;21448;-69
2021/11/19 04:01:47;;;;;;;82.33;48.15;;;;;;;2.96;73.10;94873.25;1724116;82;20974;-69
2021/11/19 04:04:15;;;;;;;89.07;49.58;;;;;;;2.98;73.05;94866.04;1707373;82;21121;-68
2021/11/19 04:06:42;;;;;;;92.05;50.25;;;;;;;2.98;72.77;94863.32;1669881;84;21751;-69
2021/11/19 04:09:08;;;;;;;107.87;59.80;;;;;;;2.91;72.93;94856.58;1672090;84;21135;-69
2021/11/19 04:11:36;;;;;;;123.05;63.75;;;;;;;2.84;72.95;94858.73;1674992;84;21036;-69
2021/11/19 04:14:02;;;;;;;130.80;69.62;;;;;;;2.82;73.15;94854.28;1660989;85;21498;-70
2021/11/19 04:16:35;;;;;;;119.50;65.25;;;;;;;2.85;72.99;94863.60;1657413;85;21085;-70
2021/11/19 04:19:02;;;;;;;108.52;59.70;;;;;;;2.83;73.13;94859.15;1676283;83;21849;-69
2021/11/19 04:21:31;;;;;;;128.68;68.57;;;;;;;2.86;73.41;94861.07;1662246;85;21455;-68
2021/11/19 04:23:59;;;;;;;120.62;65.32;;;;;;;2.87;73.14;94864.73;1682033;84;20967;-69
2021/11/19 04:26:28;;;;;;;122.50;67.30;;;;;;;2.80;73.18;94862.06;1683590;85;20986;-69
2021/11/19 04:28:55;;;;;;;115.92;67.00;;;;;;;2.86;73.51;94857.75;1661908;85;21535;-70
2021/11/19 04:31:26;;;;;;;119.72;64.20;;;;;;;2.90;73.02;94856.39;1664178;85;21977;-69
2021/11/19 04:33:53;;;;;;;130.00;73.00;;;;;;;2.83;73.19;94853.12;1673839;82;21019;-66
2021/11/19 04:36:21;;;;;;;103.83;51.48;;;;;;;2.79;73.45;94846.14;1696392;84;21075;-69
2021/11/19 04:38:47;;;;;;;96.82;48.38;;;;;;;2.87;73.77;94843.60;1692487;83;21045;-69
2021/11/19 04:41:16;;;;;;;122.05;64.27;;;;;;;3.02;73.71;94838.29;1680142;84;21476;-70
2021/11/19 04:43:43;;;;;;;129.55;74.97;;;;;;;3.11;73.61;94838.61;1697101;84;21421;-69
2021/11/19 04:46:10;;;;;;;109.80;63.98;;;;;;;3.09;73.61;94839.00;1702939;84;20992;-70
2021/11/19 04:48:38;;;;;;;100.95;59.48;;;;;;;3.10;74.00;94824.84;1683394;84;21221;-68
2021/11/19 04:51:16;;;;;;;87.15;52.83;;;;;;;3.18;74.12;94833.13;1694977;84;21028;-69
2021/11/19 04:53:43;;;;;;;78.07;44.10;;;;;;;3.23;74.32;94833.48;1671785;84;21209;-69
2021/11/19 04:56:09;;;;;;;84.72;46.60;;;;;;;3.35;74.53;94828.95;1689216;83;21141;-69
2021/11/19 04:58:36;;;;;;;77.55;44.23;;;;;;;3.50;74.36;94820.28;1695841;84;21024;-70
2021/11/19 05:01:10;;;;;;;95.90;51.80;;;;;;;3.62;74.30;94823.89;1682593;84;21013;-67
2021/11/19 05:03:55;;;;;;;88.00;48.70;;;;;;;3.77;74.42;94807.64;1694233;84;21076;-66
2021/11/19 05:06:22;;;;;;;74.37;43.52;;;;;;;3.89;74.09;94798.95;1724930;82;20987;-69
2021/11/19 05:08:49;;;;;;;67.25;38.88;;;;;;;4.02;73.93;94791.84;1729458;82;21016;-66
2021/11/19 05:11:20;;;;;;;66.28;40.33;;;;;;;4.19;73.69;94797.70;1716163;82;21058;-67
2021/11/19 05:13:48;;;;;;;62.25;35.92;;;;;;;4.25;73.18;94785.78;1717120;82;21050;-67
2021/11/19 05:16:15;;;;;;;94.15;53.75;;;;;;;4.24;73.14;94789.69;1732322;82;20994;-68
2021/11/19 05:18:43;;;;;;;81.50;46.95;;;;;;;4.20;72.98;94788.95;1726379;82;21048;-64
2021/11/19 05:21:10;;;;;;;70.42;38.02;;;;;;;4.14;73.17;94781.81;1739112;82;21149;-63
2021/11/19 05:23:39;;;;;;;85.75;44.63;;;;;;;4.16;73.47;94773.22;1734146;82;20952;-65
2021/11/19 05:26:06;;;;;;;79.20;44.15;;;;;;;4.20;73.56;94776.10;1710728;82;21062;-66
2021/11/19 05:28:34;;;;;;;81.40;43.68;;;;;;;4.23;73.80;94781.34;1731076;82;21090;-63
2021/11/19 05:31:04;;;;;;;132.70;63.38;;;;;;;4.31;73.73;94767.81;1723827;82;21065;-64
2021/11/19 05:33:33;;;;;;;125.92;67.85;;;;;;;4.41;73.68;94774.50;1706746;82;21185;-64
2021/11/19 05:35:59;;;;;;;123.15;63.68;;;;;;;4.41;73.15;94782.66;1687720;84;21008;-66
2021/11/19 05:38:29;;;;;;;126.12;70.50;;;;;;;4.30;72.99;94781.25;1672877;85;20960;-63
2021/11/19 05:40:56;;;;;;;141.07;77.70;;;;;;;4.22;72.86;94772.37;1672388;85;21059;-70
2021/11/19 05:43:25;;;;;;;132.40;68.75;;;;;;;4.20;73.02;94767.94;1671815;85;21582;-71
2021/11/19 05:45:56;;;;;;;158.78;79.20;;;;;;;4.22;73.03;94770.27;1670579;85;21196;-71
2021/11/19 05:48:24;;;;;;;130.60;68.80;;;;;;;4.18;73.23;94775.73;1668727;85;21071;-64
2021/11/19 05:50:51;;;;;;;161.35;84.13;;;;;;;4.20;73.63;94765.81;1672283;85;21050;-68
2021/11/19 05:53:20;;;;;;;165.35;107.32;;;;;;;4.28;73.73;94768.02;1634683;85;22031;-71
2021/11/19 05:55:47;;;;;;;125.82;78.33;;;;;;;4.39;73.96;94760.52;1673783;85;21035;-70
2021/11/19 05:58:15;;;;;;;89.42;58.63;;;;;;;4.56;73.79;94764.98;1672402;85;21209;-69
2021/11/19 06:00:50;;;;;;;119.90;69.07;;;;;;;4.71;73.50;94769.65;1672365;85;21039;-70
2021/11/19 06:03:19;;;;;;;114.37;65.57;;;;;;;4.77;73.41;94770.16;1664961;85;20979;-67
2021/11/19 06:05:47;;;;;;;99.85;62.38;;;;;;;4.88;73.35;94754.45;1597460;86;20989;-70
2021/11/19 06:08:19;;;;;;;87.65;55.38;;;;;;;4.99;73.22;94757.78;1629478;87;20981;-70
2021/11/19 06:10:53;;;;;;;88.27;54.65;;;;;;;5.08;72.75;94748.51;1631199;86;21149;-70
2021/11/19 06:13:24;;;;;;;78.02;47.33;;;;;;;5.12;72.68;94747.86;1617714;86;20993;-69
2021/11/19 06:15:55;;;;;;;78.00;45.35;;;;;;;5.16;72.56;94743.12;1628368;87;21037;-69
2021/11/19 06:18:27;;;;;;;67.05;40.78;;;;;;;5.21;72.48;94735.86;1624006;87;21140;-69
2021/11/19 06:20:58;;;;;;;80.15;43.68;;;;;;;5.27;72.45;94738.29;1643280;86;21026;-70
2021/11/19 06:23:34;;;;;;;81.63;47.63;;;;;;;5.33;72.47;94732.53;1637877;87;21174;-69
2021/11/19 06:26:02;;;;;;;86.08;52.38;;;;;;;5.43;72.34;94728.27;1631482;85;21043;-69
2021/11/19 06:28:34;;;;;;;84.35;50.58;;;;;;;5.52;72.34;94731.83;1629033;85;21026;-69
2021/11/19 06:31:02;;;;;;;92.33;52.67;;;;;;;5.61;72.08;94725.27;1652219;85;21607;-72
2021/11/19 06:33:29;;;;;;;81.75;45.88;;;;;;;5.66;72.12;94726.14;1639647;85;21044;-69
2021/11/19 06:35:56;;;;;;;57.20;33.02;;;;;;;5.79;71.67;94718.94;1656149;85;21131;-69
2021/11/19 06:38:22;;;;;;;40.48;25.05;;;;;;;5.94;71.11;94723.72;1659456;85;21029;-71
2021/11/19 06:40:54;;;;;;;62.27;42.15;;;;;;;6.08;70.30;94722.67;1656132;85;21668;-69
2021/11/19 06:43:34;;;;;;;76.53;49.40;;;;;;;6.17;69.96;94731.86;1635510;86;21079;-67
2021/11/19 06:46:06;;;;;;;64.50;43.13;;;;;;;6.23;69.45;94728.84;1638222;85;21151;-68
2021/11/19 06:48:44;;;;;;;68.37;32.00;;;;;;;6.25;69.25;94720.98;1625469;85;21184;-63
2021/11/19 06:51:17;;;;;;;44.88;24.35;;;;;;;6.23;69.36;94723.95;1633123;85;21241;-65
2021/11/19 06:53:52;;;;;;;41.55;23.80;;;;;;;6.25;69.30;94733.28;1638942;85;21481;-68
2021/11/19 06:56:25;;;;;;;28.25;15.70;;;;;;;6.30;69.18;94722.47;1640394;85;21583;-71
2021/11/19 06:58:59;;;;;;;23.75;15.25;;;;;;;6.39;68.17;94713.10;1645074;85;21155;-66
2021/11/19 07:01:26;;;;;;;19.73;13.60;;;;;;;6.48;67.44;94703.15;1636652;86;21080;-71
2021/11/19 07:03:53;;;;;;;32.70;18.07;;;;;;;6.57;66.45;94706.69;1646409;84;21136;-68
2021/11/19 07:06:19;;;;;;;19.70;13.30;;;;;;;6.62;65.95;94715.74;1658139;85;21072;-65
2021/11/19 07:08:47;;;;;;;22.58;14.45;;;;;;;6.67;65.27;94705.09;1634753;85;21033;-65
2021/11/19 07:11:19;;;;;;;22.37;12.98;;;;;;;6.76;65.05;94703.94;1630856;85;21073;-68
2021/11/19 07:13:48;;;;;;;16.20;10.48;;;;;;;6.84;64.66;94707.26;1599327;86;21106;-66
2021/11/19 07:16:15;;;;;;;19.52;9.25;;;;;;;6.91;64.03;94700.28;1628645;85;21066;-63
2021/11/19 07:18:42;;;;;;;19.37;12.25;;;;;;;6.95;63.48;94697.66;1630576;85;20940;-57
2021/11/19 07:21:09;;;;;;;16.00;10.53;;;;;;;6.98;63.29;94713.20;1680754;82;21011;-63
2021/11/19 07:23:36;;;;;;;11.80;8.28;;;;;;;7.02;63.10;94704.91;1691509;82;21551;-60
2021/11/19 07:26:02;;;;;;;18.52;9.43;;;;;;;7.03;62.33;94709.20;1684988;83;22641;-61
2021/11/19 07:28:29;;;;;;;30.30;18.05;;;;;;;7.08;62.09;94721.00;1658434;83;21075;-63
2021/11/19 07:31:03;;;;;;;15.53;9.18;;;;;;;7.12;62.12;94721.86;1677457;83;20978;-64
2021/11/19 07:33:50;;;;;;;9.43;7.17;;;;;;;7.21;61.71;94726.16;1690048;83;21838;-65
2021/11/19 07:36:31;;;;;;;20.43;12.68;;;;;;;7.31;60.75;94716.16;1685924;83;21139;-63
2021/11/19 07:39:16;;;;;;;17.73;11.75;;;;;;;7.41;60.95;94714.55;1683747;82;21471;-60
2021/11/19 07:41:56;;;;;;;19.40;10.30;;;;;;;7.49;61.09;94714.53;1681379;83;21137;-63
2021/11/19 07:44:25;;;;;;;20.70;12.68;;;;;;;7.47;60.85;94721.03;1642657;83;21117;-69
2021/11/19 07:46:56;;;;;;;21.10;11.85;;;;;;;7.49;60.71;94731.56;1692155;83;20990;-67
2021/11/19 07:49:23;;;;;;;33.98;14.87;;;;;;;7.49;60.91;94742.52;1685137;82;21889;-64
2021/11/19 07:51:52;;;;;;;16.50;8.98;;;;;;;7.53;60.90;94739.84;1688886;82;21217;-64
2021/11/19 07:54:20;;;;;;;11.48;8.23;;;;;;;7.49;60.26;94736.42;1690662;82;21174;-65
2021/11/19 07:56:47;;;;;;;28.80;7.33;;;;;;;7.50;60.39;94736.59;1681408;83;21081;-66
2021/11/19 07:59:22;;;;;;;8.40;5.03;;;;;;;7.50;59.81;94735.84;1679486;83;21100;-65
2021/11/19 08:01:49;;;;;;;7.40;6.17;;;;;;;7.50;59.57;94740.70;1697047;82;21100;-65
2021/11/19 08:04:16;;;;;;;10.15;6.83;;;;;;;7.55;59.70;94736.08;1707064;81;21151;-62
2021/11/19 08:06:43;;;;;;;11.38;9.80;;;;;;;7.60;59.67;94741.06;1683388;82;21610;-63
2021/11/19 08:09:30;;;;;;;16.27;8.63;;;;;;;7.65;59.53;94739.17;1668179;85;21541;-66
2021/11/19 08:12:05;;;;;;;19.65;11.43;;;;;;;7.68;59.58;94727.97;1690010;82;20991;-66
2021/11/19 08:14:32;;;;;;;25.77;11.83;;;;;;;7.75;60.08;94734.05;1689547;83;21606;-61
2021/11/19 08:17:02;;;;;;;15.25;11.03;;;;;;;7.84;59.84;94732.82;1683550;82;21931;-65
2021/11/19 08:19:44;;;;;;;19.73;10.48;;;;;;;7.93;59.50;94733.00;1667533;83;20998;-64
2021/11/19 08:22:09;;;;;;;10.38;8.63;;;;;;;7.95;59.15;94733.33;1695088;82;21101;-64
2021/11/19 08:24:35;;;;;;;11.43;6.97;;;;;;;7.99;58.47;94742.22;1698746;82;21085;-66
2021/11/19 08:27:10;;;;;;;8.40;5.78;;;;;;;8.06;58.32;94752.98;1697367;82;21053;-66
2021/11/19 08:29:38;;;;;;;10.35;6.05;;;;;;;8.12;57.67;94738.95;1687144;82;21163;-66
2021/11/19 08:32:07;;;;;;;6.92;6.28;;;;;;;8.10;57.63;94733.11;1664388;85;21069;-65
2021/11/19 08:34:33;;;;;;;7.30;6.08;;;;;;;8.10;57.92;94733.73;1675804;83;21593;-65
2021/11/19 08:37:01;;;;;;;8.50;6.30;;;;;;;8.02;57.75;94736.47;1700404;82;21564;-64
2021/11/19 08:39:28;;;;;;;8.08;6.67;;;;;;;7.96;58.28;94728.02;1664350;83;21107;-65
2021/11/19 08:41:55;;;;;;;7.60;6.90;;;;;;;7.96;58.73;94741.72;1666595;83;21088;-66
2021/11/19 08:44:25;;;;;;;8.50;7.25;;;;;;;7.95;58.58;94727.86;1678286;83;21529;-65
2021/11/19 08:46:54;;;;;;;10.25;9.05;;;;;;;7.89;59.52;94731.54;1689226;83;21117;-64
2021/11/19 08:49:25;;;;;;;6.25;5.55;;;;;;;7.82;60.12;94720.16;1677514;82;21076;-68
2021/11/19 08:51:51;;;;;;;7.70;6.30;;;;;;;7.80;60.71;94703.39;1668634;82;21597;-69
2021/11/19 08:54:18;;;;;;;8.40;6.87;;;;;;;7.78;61.19;94688.00;1691556;82;21744;-66
2021/11/19 08:56:48;;;;;;;10.20;7.62;;;;;;;7.71;61.86;94683.30;1674725;83;21507;-66
2021/11/19 08:59:15;;;;;;;32.48;18.15;;;;;;;7.55;62.45;94700.48;1674348;82;21473;-64
2021/11/19 09:01:45;;;;;;;17.05;11.53;;;;;;;7.45;63.75;94728.91;1676012;83;21884;-69
2021/11/19 09:04:12;;;;;;;7.17;6.37;;;;;;;7.41;64.78;94715.12;1672306;83;21116;-68
2021/11/19 09:06:39;;;;;;;10.78;7.37;;;;;;;7.38;65.27;94716.73;1683702;82;21122;-67
2021/11/19 09:09:07;;;;;;;9.00;7.60;;;;;;;7.33;65.79;94729.56;1672320;82;21107;-66
2021/11/19 09:11:33;;;;;;;6.53;5.80;;;;;;;7.31;65.94;94729.84;1676985;83;21148;-69
2021/11/19 09:14:01;;;;;;;8.10;5.80;;;;;;;7.33;66.11;94729.56;1634944;85;21042;-67
2021/11/19 09:16:34;;;;;;;36.55;17.37;;;;;;;7.33;65.96;94719.99;1685853;81;21126;-65
2021/11/19 09:19:10;;;;;;;30.32;15.65;;;;;;;7.30;66.33;94716.75;1693702;81;21161;-68
2021/11/19 09:22:11;;;;;;;32.13;16.82;;;;;;;7.26;66.82;94723.48;1706201;82;21554;-68
2021/11/19 09:24:39;;;;;;;30.25;15.08;;;;;;;7.29;67.12;94731.63;1697049;82;21135;-66
2021/11/19 09:27:10;;;;;;;23.92;12.45;;;;;;;7.25;67.19;94725.47;1677555;81;21111;-65
2021/11/19 09:29:48;;;;;;;20.25;11.53;;;;;;;7.20;67.32;94723.84;1668355;83;21620;-67
2021/11/19 09:32:16;;;;;;;49.88;22.20;;;;;;;7.15;67.67;94720.25;1698056;82;21135;-69
2021/11/19 09:34:48;;;;;;;77.22;33.25;;;;;;;7.11;67.70;94709.38;1672444;82;21125;-70
2021/11/19 09:37:16;;;;;;;66.30;28.92;;;;;;;7.15;67.69;94710.06;1693376;82;21538;-67
2021/11/19 09:39:45;;;;;;;37.95;19.07;;;;;;;7.15;67.65;94703.22;1707819;82;21062;-69
2021/11/19 09:42:47;;;;;;;41.45;20.37;;;;;;;7.14;67.74;94696.21;1713340;82;20990;-66
2021/11/19 09:45:50;;;;;;;27.95;14.15;;;;;;;7.11;67.79;94690.81;1684280;82;21239;-64
2021/11/19 09:48:30;;;;;;;29.67;14.70;;;;;;;7.09;67.54;94681.68;1690158;83;21149;-68
2021/11/19 09:51:17;;;;;;;21.77;12.40;;;;;;;7.06;67.31;94685.10;1695369;82;21063;-66
2021/11/19 09:54:21;;;;;;;17.57;9.88;;;;;;;7.01;67.20;94678.16;1700363;83;21510;-63
2021/11/19 09:57:36;;;;;;;17.25;10.58;;;;;;;7.04;67.45;94679.29;1710661;82;21039;-61
2021/11/19 10:00:16;;;;;;;7.22;6.05;;;;;;;7.11;66.97;94690.81;1700227;82;21046;-66
2021/11/19 10:03:15;;;;;;;6.00;5.40;;;;;;;7.11;66.83;94676.55;1688796;83;21011;-64
2021/11/19 10:06:11;;;;;;;9.85;6.97;;;;;;;7.09;66.94;94677.58;1683149;83;21105;-69
2021/11/19 10:09:03;;;;;;;17.12;10.00;;;;;;;7.08;67.16;94676.62;1649214;83;21071;-67
2021/11/19 10:11:49;;;;;;;15.58;9.75;;;;;;;7.05;67.66;94670.64;1695694;83;21035;-62
2021/11/19 10:14:24;;;;;;;14.25;9.05;;;;;;;7.02;67.99;94681.07;1692888;82;21172;-68
2021/11/19 10:17:14;;;;;;;14.58;8.53;;;;;;;6.96;67.97;94677.90;1680270;83;21204;-68
2021/11/19 10:20:09;;;;;;;10.85;7.70;;;;;;;6.93;68.19;94671.33;1712422;81;21471;-77
2021/11/19 10:22:47;;;;;;;17.12;9.08;;;;;;;6.91;68.36;94672.33;1686010;83;21129;-69
2021/11/19 10:33:09;;;;;;;10.70;7.97;;;;;;;6.96;68.22;94675.16;1679180;83;21057;-68
2021/11/19 10:35:55;;;;;;;8.35;6.40;;;;;;;7.08;67.82;94679.97;1681828;83;21072;-71
2021/11/19 10:39:03;;;;;;;10.15;7.78;;;;;;;7.11;67.47;94673.81;1676854;83;21136;-69
2021/11/19 10:42:25;;;;;;;11.80;9.15;;;;;;;7.09;68.23;94666.64;1669427;82;21014;-69
2021/11/19 10:45:19;;;;;;;13.50;7.62;;;;;;;7.08;68.94;94679.97;1669350;83;21375;-68
2021/11/19 10:48:27;;;;;;;8.88;6.60;;;;;;;6.97;69.49;94671.23;1667758;83;21767;-66
2021/11/19 10:51:22;;;;;;;9.80;7.47;;;;;;;6.88;70.01;94674.55;1664189;83;21071;-61
2021/11/19 10:54:10;;;;;;;15.05;8.70;;;;;;;6.91;70.23;94657.91;1687925;83;21090;-65
2021/11/19 10:57:06;;;;;;;15.45;9.80;;;;;;;6.91;70.32;94648.33;1708366;81;21063;-69
2021/11/19 10:59:39;;;;;;;11.60;8.00;;;;;;;6.95;70.90;94642.17;1680568;82;21136;-68
2021/11/19 11:02:15;;;;;;;7.87;6.15;;;;;;;6.93;70.31;94625.43;1711373;81;21035;-69
2021/11/19 11:04:52;;;;;;;7.83;5.45;;;;;;;6.95;70.40;94628.50;1704161;82;21614;-67
2021/11/19 11:07:31;;;;;;;5.92;5.17;;;;;;;6.87;70.29;94627.90;1668257;83;21961;-66
2021/11/19 11:10:12;;;;;;;5.97;5.28;;;;;;;6.78;70.77;94621.48;1648304;87;21114;-66
2021/11/19 11:12:51;;;;;;;11.53;6.78;;;;;;;6.70;70.79;94608.56;1681345;84;22154;-67
2021/11/19 11:15:34;;;;;;;9.98;7.50;;;;;;;6.69;70.95;94630.27;1720759;82;21039;-68
2021/11/19 11:18:15;;;;;;;5.50;4.62;;;;;;;6.73;71.11;94637.03;1643905;84;21034;-62
2021/11/19 11:20:56;;;;;;;7.17;5.87;;;;;;;6.74;70.75;94633.85;1713091;82;21038;-67
2021/11/19 11:23:45;;;;;;;8.25;5.33;;;;;;;6.74;70.34;94642.66;1682126;84;21085;-69
2021/11/19 11:26:26;;;;;;;4.40;4.00;;;;;;;6.73;70.45;94645.23;1670154;83;21174;-70
2021/11/19 11:29:02;;;;;;;34.83;20.48;;;;;;;6.73;70.34;94635.66;1691609;83;21069;-67
2021/11/19 11:32:15;;;;;;;23.62;18.10;;;;;;;6.75;69.89;94629.95;1699945;83;21080;-70
2021/11/19 11:34:59;;;;;;;6.90;6.30;;;;;;;6.83;69.28;94642.84;1662120;84;21138;-64
2021/11/19 11:37:59;;;;;;;11.88;8.40;;;;;;;6.94;68.45;94656.46;1663423;85;21129;-63
2021/11/19 11:40:43;;;;;;;17.50;10.48;;;;;;;7.05;68.00;94645.27;1680195;84;21955;-66
2021/11/19 11:43:24;;;;;;;29.98;18.35;;;;;;;7.09;68.06;94617.98;1707765;82;20954;-61
2021/11/19 11:46:28;;;;;;;19.02;12.13;;;;;;;7.15;67.78;94614.31;1715321;83;21089;-62
2021/11/19 11:49:23;;;;;;;18.55;11.15;;;;;;;7.26;67.19;94618.16;1690663;82;21065;-68
2021/11/19 11:52:22;;;;;;;19.70;11.05;;;;;;;7.31;67.14;94613.55;1702027;82;21258;-68
2021/11/19 11:55:31;;;;;;;11.97;8.38;;;;;;;7.31;67.32;94603.36;1710327;82;21225;-67
2021/11/19 11:58:05;;;;;;;17.10;11.93;;;;;;;7.30;67.18;94610.03;1713896;82;21171;-64
2021/11/19 12:00:56;;;;;;;10.28;8.05;;;;;;;7.28;67.16;94608.33;1705151;82;20973;-68
2021/11/19 12:03:38;;;;;;;10.15;8.13;;;;;;;7.25;68.06;94599.62;1670843;82;21133;-67